createdAt,value
2023-08-07T00:02:28.259Z,1.20
2023-08-07T00:05:35.122Z,2.10
2023-08-07T00:08:41.216Z,1.20
2023-08-07T00:11:47.580Z,1.10
2023-08-07T00:14:54.742Z,3.40
2023-08-07T00:18:01.059Z,2.50
2023-08-07T00:21:08.313Z,1.60
2023-08-07T00:24:15.012Z,0.90
2023-08-07T00:27:21.040Z,1.50
2023-08-07T00:30:27.117Z,1.30
2023-08-07T00:33:33.567Z,3.40
2023-08-07T00:36:39.830Z,1.60
2023-08-07T00:39:46.144Z,1.10
2023-08-07T00:42:52.085Z,2.40
2023-08-07T00:45:58.167Z,1.70
2023-08-07T00:49:04.670Z,1.60
2023-08-07T00:52:11.430Z,1.50
2023-08-07T00:55:17.550Z,2.00
2023-08-07T00:58:23.942Z,1.20
2023-08-07T01:01:30.495Z,3.40
2023-08-07T01:04:36.772Z,1.40
2023-08-07T01:07:42.878Z,1.10
2023-08-07T01:10:59.352Z,4.70
2023-08-07T01:14:11.475Z,1.30
2023-08-07T01:17:19.868Z,2.00
2023-08-07T01:20:26.266Z,1.20
2023-08-07T01:23:32.439Z,1.10
2023-08-07T01:26:39.745Z,1.60
2023-08-07T01:29:50.951Z,2.60
2023-08-07T01:33:06.086Z,1.80
2023-08-07T01:36:13.052Z,1.20
2023-08-07T01:39:19.738Z,1.10
2023-08-07T01:42:25.953Z,1.00
2023-08-07T01:45:32.976Z,1.10
2023-08-07T01:48:39.294Z,0.90
2023-08-07T01:51:45.441Z,1.40
2023-08-07T01:54:51.922Z,2.10
2023-08-07T01:57:57.953Z,4.10
2023-08-07T02:01:04.527Z,1.60
2023-08-07T02:04:11.233Z,1.70
2023-08-07T02:07:17.702Z,1.20
2023-08-07T02:10:23.992Z,1.80
2023-08-07T02:13:29.988Z,1.10
2023-08-07T02:16:36.278Z,1.70
2023-08-07T02:19:43.345Z,1.50
2023-08-07T02:22:49.998Z,1.90
2023-08-07T02:25:56.326Z,2.30
2023-08-07T02:29:04.050Z,2.20
2023-08-07T02:32:10.793Z,1.60
2023-08-07T02:35:17.329Z,1.90
2023-08-07T02:38:23.771Z,3.80
2023-08-07T02:41:30.029Z,1.70
2023-08-07T02:44:36.253Z,2.40
2023-08-07T02:47:42.389Z,2.70
2023-08-07T02:50:50.115Z,4.10
2023-08-07T02:53:57.645Z,1.90
2023-08-07T02:57:04.290Z,2.10
2023-08-07T03:00:13.652Z,2.50
2023-08-07T03:03:20.078Z,3.40
2023-08-07T03:06:26.445Z,3.50
2023-08-07T03:09:33.199Z,2.00
2023-08-07T03:12:39.844Z,3.00
2023-08-07T03:15:45.945Z,2.50
2023-08-07T03:18:52.916Z,3.40
2023-08-07T03:22:00.163Z,2.60
2023-08-07T03:25:07.670Z,3.70
2023-08-07T03:28:13.929Z,2.80
2023-08-07T03:31:20.271Z,3.00
2023-08-07T03:34:26.552Z,2.20
2023-08-07T03:37:33.238Z,2.30
2023-08-07T03:40:40.306Z,3.40
2023-08-07T03:43:46.597Z,2.30
2023-08-07T03:46:53.041Z,2.60
2023-08-07T03:49:59.859Z,2.00
2023-08-07T03:53:08.221Z,5.00
2023-08-07T03:56:14.282Z,2.90
2023-08-07T03:59:21.453Z,2.30
2023-08-07T04:02:30.493Z,1.50
2023-08-07T04:05:38.321Z,4.20
2023-08-07T04:08:44.574Z,3.20
2023-08-07T04:11:51.075Z,2.70
2023-08-07T04:14:57.347Z,2.10
2023-08-07T04:18:04.310Z,3.50
2023-08-07T04:21:10.839Z,2.30
2023-08-07T04:24:17.335Z,3.10
2023-08-07T04:27:23.825Z,3.40
2023-08-07T04:30:30.242Z,3.50
2023-08-07T04:33:37.481Z,4.10
2023-08-07T04:36:43.829Z,2.90
2023-08-07T04:39:50.004Z,4.50
2023-08-07T04:42:56.691Z,2.90
2023-08-07T04:46:05.115Z,3.70
2023-08-07T04:49:11.710Z,2.60
2023-08-07T04:52:26.153Z,2.90
2023-08-07T04:55:32.689Z,3.60
2023-08-07T04:58:39.623Z,2.30
2023-08-07T05:01:46.698Z,4.90
2023-08-07T05:04:53.461Z,5.00
2023-08-07T05:08:02.924Z,3.00
2023-08-07T05:11:09.058Z,3.40
2023-08-07T05:14:15.351Z,2.80
2023-08-07T05:17:21.530Z,4.80
2023-08-07T05:20:28.143Z,3.30
2023-08-07T05:23:34.625Z,3.20
2023-08-07T05:26:41.838Z,3.20
2023-08-07T05:29:48.580Z,2.30
2023-08-07T05:32:54.774Z,4.80
2023-08-07T05:36:00.973Z,4.00
2023-08-07T05:39:07.735Z,2.80
2023-08-07T05:42:14.652Z,3.10
2023-08-07T05:45:21.260Z,3.80
2023-08-07T05:48:27.618Z,3.50
2023-08-07T05:51:33.938Z,2.50
2023-08-07T05:54:40.250Z,2.30
2023-08-07T05:57:46.837Z,3.80
2023-08-07T06:00:53.142Z,2.80
2023-08-07T06:04:00.117Z,3.70
2023-08-07T06:07:08.175Z,2.60
2023-08-07T06:10:14.653Z,3.10
2023-08-07T06:13:34.327Z,2.80
2023-08-07T06:16:42.233Z,2.70
2023-08-07T06:19:48.558Z,2.60
2023-08-07T06:22:54.931Z,3.30
2023-08-07T06:26:05.130Z,3.00
2023-08-07T06:29:11.600Z,1.50
2023-08-07T06:32:19.448Z,2.50
2023-08-07T06:35:26.352Z,3.30
2023-08-07T06:38:33.820Z,2.60
2023-08-07T06:41:40.462Z,2.90
2023-08-07T06:44:46.985Z,3.00
2023-08-07T06:47:53.540Z,2.50
2023-08-07T06:51:00.012Z,2.80
2023-08-07T06:54:07.007Z,1.60
2023-08-07T06:57:13.301Z,1.90
2023-08-07T07:00:23.161Z,2.60
2023-08-07T07:03:29.764Z,1.60
2023-08-07T07:06:36.367Z,2.90
2023-08-07T07:09:42.929Z,1.20
2023-08-07T07:12:49.434Z,2.00
2023-08-07T07:16:00.577Z,1.50
2023-08-07T07:19:07.507Z,5.00
2023-08-07T07:22:13.858Z,1.50
2023-08-07T07:25:21.468Z,2.20
2023-08-07T07:28:27.770Z,2.80
2023-08-07T07:31:34.275Z,2.60
2023-08-07T07:34:40.750Z,2.10
2023-08-07T07:37:47.040Z,3.30
2023-08-07T07:40:56.981Z,1.60
2023-08-07T07:44:03.517Z,1.50
2023-08-07T07:47:12.627Z,1.50
2023-08-07T07:50:20.469Z,2.10
2023-08-07T07:53:26.740Z,1.20
2023-08-07T07:56:33.385Z,1.60
2023-08-07T07:59:39.535Z,1.80
2023-08-07T08:02:45.983Z,1.00
2023-08-07T08:05:54.571Z,1.60
2023-08-07T08:09:05.711Z,2.00
2023-08-07T08:12:12.931Z,1.10
2023-08-07T08:15:19.501Z,0.80
2023-08-07T08:18:25.658Z,1.30
2023-08-07T08:21:32.685Z,0.60
2023-08-07T08:24:38.988Z,1.40
2023-08-07T08:27:45.481Z,2.40
2023-08-07T08:30:52.286Z,1.40
2023-08-07T08:33:59.862Z,1.30
2023-08-07T08:37:09.932Z,1.20
2023-08-07T08:40:18.665Z,0.90
2023-08-07T08:43:24.810Z,1.00
2023-08-07T08:46:32.288Z,1.10
2023-08-07T08:49:40.149Z,1.20
2023-08-07T08:52:47.458Z,2.20
2023-08-07T08:55:54.457Z,0.80
2023-08-07T08:59:01.137Z,0.80
2023-08-07T09:02:07.940Z,1.20
2023-08-07T09:05:13.968Z,0.80
2023-08-07T09:08:20.512Z,1.50
2023-08-07T09:11:28.224Z,2.10
2023-08-07T09:14:37.790Z,0.70
2023-08-07T09:20:50.505Z,1.00
2023-08-07T09:23:57.190Z,0.40
2023-08-07T09:27:03.681Z,1.80
2023-08-07T09:30:12.432Z,1.90
2023-08-07T09:33:21.457Z,0.40
2023-08-07T09:36:28.004Z,1.30
2023-08-07T09:39:36.937Z,0.80
2023-08-07T09:42:43.312Z,0.60
2023-08-07T09:45:51.306Z,0.50
2023-08-07T09:49:02.081Z,0.90
2023-08-07T09:52:11.374Z,0.50
2023-08-07T09:55:18.010Z,2.10
2023-08-07T09:58:26.314Z,0.60
2023-08-07T10:01:33.734Z,2.20
2023-08-07T10:04:40.461Z,0.60
2023-08-07T10:07:48.087Z,1.60
2023-08-07T10:10:54.365Z,1.10
2023-08-07T10:14:02.552Z,1.50
2023-08-07T10:17:09.830Z,1.00
2023-08-07T10:20:17.283Z,0.50
2023-08-07T10:23:25.154Z,1.50
2023-08-07T10:26:32.044Z,0.60
2023-08-07T10:29:39.476Z,2.50
2023-08-07T10:32:47.442Z,0.70
2023-08-07T10:36:01.062Z,0.50
2023-08-07T10:39:35.491Z,1.90
2023-08-07T10:43:01.008Z,1.80
2023-08-07T10:46:09.518Z,0.50
2023-08-07T10:49:35.321Z,0.50
2023-08-07T10:52:44.120Z,1.30
2023-08-07T10:55:51.298Z,0.80
2023-08-07T10:58:58.600Z,2.60
2023-08-07T11:02:05.136Z,0.90
2023-08-07T11:05:11.830Z,0.80
2023-08-07T11:08:18.140Z,2.80
2023-08-07T11:11:24.595Z,0.80
2023-08-07T11:14:31.261Z,0.90
2023-08-07T11:17:38.053Z,1.00
2023-08-07T11:20:45.096Z,1.90
2023-08-07T11:23:51.610Z,1.10
2023-08-07T11:27:02.462Z,2.10
2023-08-07T11:30:16.160Z,1.70
2023-08-07T11:33:35.294Z,7.30
2023-08-07T11:36:46.381Z,1.70
2023-08-07T11:40:02.646Z,2.00
2023-08-07T11:43:11.069Z,2.70
2023-08-07T11:46:18.061Z,1.50
2023-08-07T11:49:25.171Z,1.80
2023-08-07T11:52:33.225Z,0.90
2023-08-07T11:55:40.563Z,2.80
2023-08-07T11:58:50.131Z,1.30
2023-08-07T12:01:58.262Z,2.20
2023-08-07T12:05:08.766Z,3.80
2023-08-07T12:08:16.310Z,1.30
2023-08-07T12:11:24.257Z,1.60
2023-08-07T12:14:34.013Z,2.50
2023-08-07T12:20:46.806Z,1.40
2023-08-07T12:24:01.624Z,1.80
2023-08-07T12:27:12.144Z,2.10
2023-08-07T12:30:21.969Z,1.50
2023-08-07T12:33:35.268Z,2.60
2023-08-07T12:36:41.840Z,2.10
2023-08-07T12:42:57.850Z,4.80
2023-08-07T12:49:14.789Z,2.30
2023-08-07T12:52:21.366Z,2.30
2023-08-07T12:55:27.597Z,1.70
2023-08-07T12:58:34.017Z,3.20
2023-08-07T13:01:40.487Z,2.30
2023-08-07T13:04:47.550Z,4.20
2023-08-07T13:07:56.031Z,2.70
2023-08-07T13:11:02.264Z,3.50
2023-08-07T13:14:08.761Z,2.50
2023-08-07T13:17:15.241Z,1.00
2023-08-07T13:20:22.917Z,1.80
2023-08-07T13:23:29.322Z,2.10
2023-08-07T13:26:35.753Z,2.10
2023-08-07T13:29:42.431Z,1.90
2023-08-07T13:32:48.853Z,3.50
2023-08-07T13:35:55.070Z,1.60
2023-08-07T13:39:02.147Z,1.80
2023-08-07T13:42:09.730Z,1.70
2023-08-07T13:45:16.416Z,0.90
2023-08-07T13:48:23.681Z,1.70
2023-08-07T13:51:31.609Z,2.70
2023-08-07T13:54:37.927Z,1.40
2023-08-07T13:57:44.160Z,1.40
2023-08-07T14:00:50.575Z,1.10
2023-08-07T14:03:57.003Z,1.00
2023-08-07T14:07:05.374Z,1.20
2023-08-07T14:10:13.910Z,3.00
2023-08-07T14:13:21.745Z,2.90
2023-08-07T14:16:27.998Z,1.00
2023-08-07T14:19:34.611Z,1.50
2023-08-07T14:22:42.520Z,3.80
2023-08-07T14:25:49.949Z,1.20
2023-08-07T14:28:57.725Z,2.00
2023-08-07T14:32:04.421Z,2.80
2023-08-07T14:35:11.291Z,2.20
2023-08-07T14:38:17.534Z,2.20
2023-08-07T14:41:23.696Z,2.10
2023-08-07T14:44:30.689Z,2.30
2023-08-07T14:47:37.337Z,2.10
2023-08-07T14:50:44.077Z,2.20
2023-08-07T14:53:52.715Z,2.90
2023-08-07T14:56:59.839Z,3.20
2023-08-07T15:00:09.658Z,2.50
2023-08-07T15:03:15.875Z,3.40
2023-08-07T15:06:22.915Z,2.30
2023-08-07T15:09:29.188Z,3.30
2023-08-07T15:12:36.179Z,3.00
2023-08-07T15:15:42.648Z,3.60
2023-08-07T15:18:51.708Z,4.10
2023-08-07T15:21:58.847Z,3.10
2023-08-07T15:25:07.842Z,3.90
2023-08-07T15:28:14.632Z,2.40
2023-08-07T15:31:20.776Z,4.60
2023-08-07T15:34:27.986Z,2.40
2023-08-07T15:37:34.414Z,4.10
2023-08-07T15:40:41.108Z,3.60
2023-08-07T15:43:47.346Z,2.40
2023-08-07T15:46:53.888Z,4.60
2023-08-07T15:50:03.843Z,3.20
2023-08-07T15:53:10.828Z,3.30
2023-08-07T15:56:17.362Z,3.80
2023-08-07T15:59:23.612Z,2.80
2023-08-07T16:02:30.456Z,3.40
2023-08-07T16:05:37.714Z,2.80
2023-08-07T16:08:43.983Z,4.50
2023-08-07T16:11:50.077Z,5.60
2023-08-07T16:15:00.253Z,3.90
2023-08-07T16:18:08.634Z,5.20
2023-08-07T16:21:15.263Z,5.20
2023-08-07T16:24:21.273Z,3.50
2023-08-07T16:27:27.539Z,4.20
2023-08-07T16:30:33.885Z,4.20
2023-08-07T16:33:40.889Z,4.50
2023-08-07T16:36:47.761Z,4.00
2023-08-07T16:39:54.135Z,3.70
2023-08-07T16:43:00.077Z,3.80
2023-08-07T16:46:06.714Z,4.30
2023-08-07T16:49:13.298Z,4.20
2023-08-07T16:52:22.466Z,5.50
2023-08-07T16:55:29.314Z,3.40
2023-08-07T16:58:36.095Z,5.00
2023-08-07T17:01:42.534Z,4.40
2023-08-07T17:04:48.903Z,3.60
2023-08-07T17:07:55.564Z,5.70
2023-08-07T17:11:02.498Z,5.80
2023-08-07T17:14:08.661Z,4.40
2023-08-07T17:17:15.376Z,5.50
2023-08-07T17:20:23.464Z,5.20
2023-08-07T17:23:30.077Z,5.80
2023-08-07T17:26:36.424Z,4.50
2023-08-07T17:29:49.916Z,4.10
2023-08-07T17:32:58.361Z,4.50
2023-08-07T17:36:07.432Z,5.20
2023-08-07T17:39:13.788Z,8.00
2023-08-07T17:42:20.128Z,6.80
2023-08-07T17:45:26.501Z,4.90
2023-08-07T17:48:32.806Z,3.60
2023-08-07T17:51:40.396Z,5.00
2023-08-07T17:54:51.138Z,5.50
2023-08-07T17:57:57.544Z,4.40
2023-08-07T18:01:05.490Z,7.10
2023-08-07T18:04:11.737Z,7.80
2023-08-07T18:07:18.050Z,5.10
2023-08-07T18:10:24.766Z,4.40
2023-08-07T18:13:30.956Z,4.50
2023-08-07T18:16:38.078Z,5.10
2023-08-07T18:19:44.375Z,7.10
2023-08-07T18:22:50.816Z,4.90
2023-08-07T18:25:57.051Z,4.90
2023-08-07T18:29:03.639Z,4.80
2023-08-07T18:32:11.134Z,7.60
2023-08-07T18:35:17.708Z,3.70
2023-08-07T18:38:24.640Z,4.20
2023-08-07T18:41:33.246Z,4.90
2023-08-07T18:44:40.774Z,5.70
2023-08-07T18:47:47.528Z,5.60
2023-08-07T18:51:04.284Z,6.30
2023-08-07T18:54:11.622Z,5.80
2023-08-07T18:57:19.321Z,5.30
2023-08-07T19:00:26.695Z,10.50
2023-08-07T19:03:33.411Z,24.30
2023-08-07T19:06:40.243Z,26.20
2023-08-07T19:09:49.971Z,11.70
2023-08-07T19:12:56.079Z,7.40
2023-08-07T19:16:02.198Z,7.50
2023-08-07T19:19:08.491Z,5.50
2023-08-07T19:22:15.133Z,4.80
2023-08-07T19:25:21.270Z,5.80
2023-08-07T19:28:27.638Z,4.10
2023-08-07T19:31:33.844Z,4.90
2023-08-07T19:34:40.069Z,4.20
2023-08-07T19:37:46.452Z,4.90
2023-08-07T19:40:53.395Z,4.10
2023-08-07T19:43:59.878Z,3.80
2023-08-07T19:47:06.867Z,3.50
2023-08-07T19:50:14.289Z,7.10
2023-08-07T19:53:20.503Z,4.90
2023-08-07T19:56:26.683Z,5.70
2023-08-07T19:59:33.100Z,3.40
2023-08-07T20:02:39.664Z,3.50
2023-08-07T20:05:46.248Z,3.50
2023-08-07T20:08:52.407Z,4.00
2023-08-07T20:11:59.517Z,4.20
2023-08-07T20:15:07.955Z,3.30
2023-08-07T20:18:14.376Z,5.50
2023-08-07T20:21:20.417Z,3.80
2023-08-07T20:24:28.146Z,5.90
2023-08-07T20:27:34.596Z,2.90
2023-08-07T20:30:41.104Z,3.70
2023-08-07T20:33:47.164Z,4.70
2023-08-07T20:36:53.653Z,2.80
2023-08-07T20:40:00.280Z,3.80
2023-08-07T20:43:07.436Z,2.80
2023-08-07T20:46:13.680Z,2.60
2023-08-07T20:49:19.957Z,3.10
2023-08-07T20:52:26.573Z,3.90
2023-08-07T20:55:32.806Z,2.80
2023-08-07T20:58:39.041Z,3.20
2023-08-07T21:01:46.147Z,3.00
2023-08-07T21:04:52.364Z,2.50
2023-08-07T21:07:58.507Z,2.60
2023-08-07T21:11:05.117Z,2.50
2023-08-07T21:14:11.308Z,3.50
2023-08-07T21:17:17.816Z,4.50
2023-08-07T21:20:25.911Z,4.10
2023-08-07T21:23:33.462Z,3.90
2023-08-07T21:26:41.269Z,2.60
2023-08-07T21:29:47.518Z,3.00
2023-08-07T21:32:54.351Z,3.50
2023-08-07T21:36:01.180Z,3.10
2023-08-07T21:39:07.673Z,3.00
2023-08-07T21:42:13.854Z,2.30
2023-08-07T21:45:20.008Z,2.60
2023-08-07T21:48:26.168Z,3.30
2023-08-07T21:51:33.199Z,2.90
2023-08-07T21:54:39.865Z,2.70
2023-08-07T21:57:46.424Z,3.40
2023-08-07T22:00:52.932Z,3.30
2023-08-07T22:03:59.303Z,4.40
2023-08-07T22:07:06.483Z,3.60
2023-08-07T22:10:20.481Z,3.00
2023-08-07T22:13:27.281Z,3.30
2023-08-07T22:16:33.638Z,3.50
2023-08-07T22:19:41.497Z,2.40
2023-08-07T22:22:52.810Z,2.10
2023-08-07T22:26:02.204Z,1.90
2023-08-07T22:29:08.454Z,2.50
2023-08-07T22:32:26.246Z,2.70
2023-08-07T22:35:34.997Z,2.80
2023-08-07T22:38:41.582Z,3.10
2023-08-07T22:41:49.413Z,2.70
2023-08-07T22:44:55.816Z,2.40
2023-08-07T22:48:02.621Z,3.10
2023-08-07T22:51:10.265Z,3.30
2023-08-07T22:54:16.536Z,2.40
2023-08-07T22:57:23.607Z,3.30
2023-08-07T23:00:32.593Z,2.40
2023-08-07T23:03:39.008Z,2.80
2023-08-07T23:06:46.986Z,2.30
2023-08-07T23:09:53.175Z,5.10
2023-08-07T23:12:59.638Z,3.70
2023-08-07T23:16:06.306Z,3.30
2023-08-07T23:19:12.727Z,2.70
2023-08-07T23:22:19.131Z,4.20
2023-08-07T23:25:25.635Z,3.40
2023-08-07T23:28:31.926Z,3.90
2023-08-07T23:31:38.565Z,2.70
2023-08-07T23:34:44.852Z,3.40
2023-08-07T23:37:51.191Z,4.80
2023-08-07T23:40:57.371Z,3.50
2023-08-07T23:44:03.607Z,3.90
2023-08-07T23:47:10.604Z,3.50
2023-08-07T23:50:17.189Z,4.20
2023-08-07T23:53:23.340Z,2.60
2023-08-07T23:56:30.350Z,2.90
2023-08-07T23:59:36.787Z,3.10
